sensor_id;sensor_type;location;lat;lon;timestamp;P1;durP1;ratioP1;P2;durP2;ratioP2
7231;SDS011;3657;49.630;11.018;2023-04-22T00:01:03;9.30;;;8.67;;
7231;SDS011;3657;49.630;11.018;2023-04-22T00:03:30;8.97;;;8.67;;
7231;SDS011;3657;49.630;11.018;2023-04-22T00:05:57;9.90;;;9.40;;
7231;SDS011;3657;49.630;11.018;2023-04-22T00:08:26;8.93;;;8.40;;
7231;SDS011;3657;49.630;11.018;2023-04-22T00:10:52;8.27;;;7.97;;
7231;SDS011;3657;49.630;11.018;2023-04-22T00:13:20;9.43;;;9.03;;
7231;SDS011;3657;49.630;11.018;2023-04-22T00:15:47;9.37;;;8.90;;
7231;SDS011;3657;49.630;11.018;2023-04-22T00:18:13;10.57;;;10.07;;
7231;SDS011;3657;49.630;11.018;2023-04-22T00:20:40;9.30;;;8.70;;
7231;SDS011;3657;49.630;11.018;2023-04-22T00:23:08;8.97;;;8.50;;
7231;SDS011;3657;49.630;11.018;2023-04-22T00:25:36;9.00;;;8.50;;
7231;SDS011;3657;49.630;11.018;2023-04-22T00:28:04;9.67;;;9.17;;
7231;SDS011;3657;49.630;11.018;2023-04-22T00:30:31;9.20;;;8.87;;
7231;SDS011;3657;49.630;11.018;2023-04-22T00:32:57;10.97;;;10.53;;
7231;SDS011;3657;49.630;11.018;2023-04-22T00:35:24;9.57;;;9.13;;
7231;SDS011;3657;49.630;11.018;2023-04-22T00:37:51;9.83;;;9.23;;
7231;SDS011;3657;49.630;11.018;2023-04-22T00:40:17;9.73;;;9.33;;
7231;SDS011;3657;49.630;11.018;2023-04-22T00:42:48;10.17;;;9.57;;
7231;SDS011;3657;49.630;11.018;2023-04-22T00:45:15;9.97;;;9.57;;
7231;SDS011;3657;49.630;11.018;2023-04-22T00:47:43;10.03;;;9.27;;
7231;SDS011;3657;49.630;11.018;2023-04-22T00:50:10;9.53;;;8.87;;
7231;SDS011;3657;49.630;11.018;2023-04-22T00:52:37;9.07;;;8.77;;
7231;SDS011;3657;49.630;11.018;2023-04-22T00:55:04;10.27;;;9.80;;
7231;SDS011;3657;49.630;11.018;2023-04-22T00:57:31;10.77;;;10.30;;
7231;SDS011;3657;49.630;11.018;2023-04-22T01:00:03;10.97;;;10.30;;
7231;SDS011;3657;49.630;11.018;2023-04-22T01:02:31;8.53;;;8.23;;
7231;SDS011;3657;49.630;11.018;2023-04-22T01:04:58;9.07;;;8.77;;
7231;SDS011;3657;49.630;11.018;2023-04-22T01:07:25;9.33;;;9.03;;
7231;SDS011;3657;49.630;11.018;2023-04-22T01:09:52;9.10;;;8.70;;
7231;SDS011;3657;49.630;11.018;2023-04-22T01:12:18;10.20;;;9.60;;
7231;SDS011;3657;49.630;11.018;2023-04-22T01:14:45;8.90;;;8.50;;
7231;SDS011;3657;49.630;11.018;2023-04-22T01:17:13;8.57;;;8.27;;
7231;SDS011;3657;49.630;11.018;2023-04-22T01:19:43;9.30;;;9.00;;
7231;SDS011;3657;49.630;11.018;2023-04-22T01:22:10;10.97;;;10.27;;
7231;SDS011;3657;49.630;11.018;2023-04-22T01:24:39;10.63;;;10.13;;
7231;SDS011;3657;49.630;11.018;2023-04-22T01:27:06;10.23;;;9.53;;
7231;SDS011;3657;49.630;11.018;2023-04-22T01:29:34;9.60;;;9.20;;
7231;SDS011;3657;49.630;11.018;2023-04-22T01:32:02;10.20;;;9.47;;
7231;SDS011;3657;49.630;11.018;2023-04-22T01:34:29;9.73;;;9.23;;
7231;SDS011;3657;49.630;11.018;2023-04-22T01:36:56;10.13;;;9.50;;
7231;SDS011;3657;49.630;11.018;2023-04-22T01:39:23;10.37;;;9.70;;
7231;SDS011;3657;49.630;11.018;2023-04-22T01:41:51;9.90;;;9.40;;
7231;SDS011;3657;49.630;11.018;2023-04-22T01:44:19;10.47;;;9.87;;
7231;SDS011;3657;49.630;11.018;2023-04-22T01:46:46;10.53;;;9.73;;
7231;SDS011;3657;49.630;11.018;2023-04-22T01:49:13;10.47;;;9.73;;
7231;SDS011;3657;49.630;11.018;2023-04-22T01:51:40;10.30;;;9.80;;
7231;SDS011;3657;49.630;11.018;2023-04-22T01:54:06;10.70;;;9.90;;
7231;SDS011;3657;49.630;11.018;2023-04-22T01:56:35;10.03;;;9.33;;
7231;SDS011;3657;49.630;11.018;2023-04-22T01:59:04;11.17;;;10.47;;
7231;SDS011;3657;49.630;11.018;2023-04-22T02:01:30;10.10;;;9.70;;
7231;SDS011;3657;49.630;11.018;2023-04-22T02:03:57;10.07;;;9.57;;
7231;SDS011;3657;49.630;11.018;2023-04-22T02:06:24;9.80;;;9.40;;
7231;SDS011;3657;49.630;11.018;2023-04-22T02:08:51;10.70;;;10.10;;
7231;SDS011;3657;49.630;11.018;2023-04-22T02:11:18;9.97;;;9.47;;
7231;SDS011;3657;49.630;11.018;2023-04-22T02:13:45;9.97;;;9.37;;
7231;SDS011;3657;49.630;11.018;2023-04-22T02:16:13;10.03;;;9.53;;
7231;SDS011;3657;49.630;11.018;2023-04-22T02:18:39;9.63;;;8.93;;
7231;SDS011;3657;49.630;11.018;2023-04-22T02:21:06;9.63;;;9.23;;
7231;SDS011;3657;49.630;11.018;2023-04-22T02:23:33;9.90;;;9.40;;
7231;SDS011;3657;49.630;11.018;2023-04-22T02:26:00;10.03;;;9.47;;
7231;SDS011;3657;49.630;11.018;2023-04-22T02:28:27;10.03;;;9.43;;
7231;SDS011;3657;49.630;11.018;2023-04-22T02:30:54;9.53;;;9.20;;
7231;SDS011;3657;49.630;11.018;2023-04-22T02:33:22;10.13;;;9.50;;
7231;SDS011;3657;49.630;11.018;2023-04-22T02:35:49;10.30;;;9.80;;
7231;SDS011;3657;49.630;11.018;2023-04-22T02:38:15;10.47;;;9.83;;
7231;SDS011;3657;49.630;11.018;2023-04-22T02:40:42;9.37;;;8.97;;
7231;SDS011;3657;49.630;11.018;2023-04-22T02:43:08;9.30;;;8.60;;
7231;SDS011;3657;49.630;11.018;2023-04-22T02:45:35;9.37;;;8.87;;
7231;SDS011;3657;49.630;11.018;2023-04-22T02:48:02;9.50;;;9.10;;
7231;SDS011;3657;49.630;11.018;2023-04-22T02:50:30;10.47;;;9.97;;
7231;SDS011;3657;49.630;11.018;2023-04-22T02:52:57;10.30;;;9.87;;
7231;SDS011;3657;49.630;11.018;2023-04-22T02:55:24;10.83;;;10.23;;
7231;SDS011;3657;49.630;11.018;2023-04-22T02:57:50;10.83;;;10.27;;
7231;SDS011;3657;49.630;11.018;2023-04-22T03:00:17;9.10;;;8.80;;
7231;SDS011;3657;49.630;11.018;2023-04-22T03:02:44;10.17;;;9.67;;
7231;SDS011;3657;49.630;11.018;2023-04-22T03:05:10;9.73;;;9.23;;
7231;SDS011;3657;49.630;11.018;2023-04-22T03:07:38;10.27;;;9.87;;
7231;SDS011;3657;49.630;11.018;2023-04-22T03:10:05;9.77;;;9.37;;
7231;SDS011;3657;49.630;11.018;2023-04-22T03:12:33;9.57;;;9.17;;
7231;SDS011;3657;49.630;11.018;2023-04-22T03:15:00;9.07;;;8.63;;
7231;SDS011;3657;49.630;11.018;2023-04-22T03:17:26;9.03;;;8.53;;
7231;SDS011;3657;49.630;11.018;2023-04-22T03:19:53;9.80;;;9.33;;
7231;SDS011;3657;49.630;11.018;2023-04-22T03:22:19;9.67;;;9.13;;
7231;SDS011;3657;49.630;11.018;2023-04-22T03:24:47;9.40;;;9.10;;
7231;SDS011;3657;49.630;11.018;2023-04-22T03:27:14;9.33;;;8.87;;
7231;SDS011;3657;49.630;11.018;2023-04-22T03:29:41;8.80;;;8.40;;
7231;SDS011;3657;49.630;11.018;2023-04-22T03:32:08;9.30;;;8.80;;
7231;SDS011;3657;49.630;11.018;2023-04-22T03:34:35;9.60;;;9.30;;
7231;SDS011;3657;49.630;11.018;2023-04-22T03:37:01;10.30;;;9.90;;
7231;SDS011;3657;49.630;11.018;2023-04-22T03:39:28;9.43;;;9.03;;
7231;SDS011;3657;49.630;11.018;2023-04-22T03:41:56;9.37;;;9.03;;
7231;SDS011;3657;49.630;11.018;2023-04-22T03:44:22;9.93;;;9.50;;
7231;SDS011;3657;49.630;11.018;2023-04-22T03:46:49;9.40;;;9.07;;
7231;SDS011;3657;49.630;11.018;2023-04-22T03:49:16;10.10;;;9.50;;
7231;SDS011;3657;49.630;11.018;2023-04-22T03:51:42;9.00;;;8.30;;
7231;SDS011;3657;49.630;11.018;2023-04-22T03:54:09;9.83;;;9.53;;
7231;SDS011;3657;49.630;11.018;2023-04-22T03:56:35;9.73;;;9.27;;
7231;SDS011;3657;49.630;11.018;2023-04-22T03:59:03;9.30;;;8.97;;
7231;SDS011;3657;49.630;11.018;2023-04-22T04:01:30;9.70;;;9.20;;
7231;SDS011;3657;49.630;11.018;2023-04-22T04:03:57;9.93;;;9.43;;
7231;SDS011;3657;49.630;11.018;2023-04-22T04:06:23;10.03;;;9.53;;
7231;SDS011;3657;49.630;11.018;2023-04-22T04:08:50;9.67;;;9.37;;
7231;SDS011;3657;49.630;11.018;2023-04-22T04:11:17;10.80;;;10.27;;
7231;SDS011;3657;49.630;11.018;2023-04-22T04:13:43;11.13;;;10.33;;
7231;SDS011;3657;49.630;11.018;2023-04-22T04:16:11;10.30;;;9.80;;
7231;SDS011;3657;49.630;11.018;2023-04-22T04:18:38;9.70;;;9.40;;
7231;SDS011;3657;49.630;11.018;2023-04-22T04:21:05;9.60;;;9.30;;
7231;SDS011;3657;49.630;11.018;2023-04-22T04:23:31;11.00;;;10.03;;
7231;SDS011;3657;49.630;11.018;2023-04-22T04:25:58;9.83;;;9.33;;
7231;SDS011;3657;49.630;11.018;2023-04-22T04:28:26;9.43;;;9.07;;
7231;SDS011;3657;49.630;11.018;2023-04-22T04:30:57;10.03;;;9.43;;
7231;SDS011;3657;49.630;11.018;2023-04-22T04:33:25;11.23;;;10.43;;
7231;SDS011;3657;49.630;11.018;2023-04-22T04:35:52;11.20;;;10.63;;
7231;SDS011;3657;49.630;11.018;2023-04-22T04:38:19;9.63;;;9.23;;
7231;SDS011;3657;49.630;11.018;2023-04-22T04:40:47;8.90;;;8.60;;
7231;SDS011;3657;49.630;11.018;2023-04-22T04:43:15;9.83;;;9.00;;
7231;SDS011;3657;49.630;11.018;2023-04-22T04:45:41;8.83;;;8.53;;
7231;SDS011;3657;49.630;11.018;2023-04-22T04:48:10;9.50;;;9.10;;
7231;SDS011;3657;49.630;11.018;2023-04-22T04:50:39;10.47;;;9.97;;
7231;SDS011;3657;49.630;11.018;2023-04-22T04:53:06;10.30;;;9.80;;
7231;SDS011;3657;49.630;11.018;2023-04-22T04:55:33;9.77;;;9.37;;
7231;SDS011;3657;49.630;11.018;2023-04-22T04:57:59;9.20;;;8.70;;
7231;SDS011;3657;49.630;11.018;2023-04-22T05:00:26;9.77;;;9.37;;
7231;SDS011;3657;49.630;11.018;2023-04-22T05:02:53;9.70;;;9.30;;
7231;SDS011;3657;49.630;11.018;2023-04-22T05:05:19;9.40;;;8.90;;
7231;SDS011;3657;49.630;11.018;2023-04-22T05:07:47;10.30;;;9.80;;
7231;SDS011;3657;49.630;11.018;2023-04-22T05:10:15;10.53;;;9.97;;
7231;SDS011;3657;49.630;11.018;2023-04-22T05:12:43;9.30;;;9.00;;
7231;SDS011;3657;49.630;11.018;2023-04-22T05:15:10;11.60;;;10.93;;
7231;SDS011;3657;49.630;11.018;2023-04-22T05:17:37;9.73;;;9.23;;
7231;SDS011;3657;49.630;11.018;2023-04-22T05:20:03;9.10;;;8.70;;
7231;SDS011;3657;49.630;11.018;2023-04-22T05:22:31;9.87;;;9.47;;
7231;SDS011;3657;49.630;11.018;2023-04-22T05:24:59;9.00;;;8.70;;
7231;SDS011;3657;49.630;11.018;2023-04-22T05:27:25;10.10;;;9.60;;
7231;SDS011;3657;49.630;11.018;2023-04-22T05:29:52;9.03;;;8.70;;
7231;SDS011;3657;49.630;11.018;2023-04-22T05:32:19;9.30;;;8.73;;
7231;SDS011;3657;49.630;11.018;2023-04-22T05:34:45;9.73;;;9.43;;
7231;SDS011;3657;49.630;11.018;2023-04-22T05:37:12;8.83;;;8.37;;
7231;SDS011;3657;49.630;11.018;2023-04-22T05:39:39;9.83;;;9.23;;
7231;SDS011;3657;49.630;11.018;2023-04-22T05:42:07;9.63;;;9.00;;
7231;SDS011;3657;49.630;11.018;2023-04-22T05:44:33;9.17;;;8.87;;
7231;SDS011;3657;49.630;11.018;2023-04-22T05:47:00;8.93;;;8.63;;
7231;SDS011;3657;49.630;11.018;2023-04-22T05:49:27;10.67;;;9.93;;
7231;SDS011;3657;49.630;11.018;2023-04-22T05:51:53;10.20;;;9.63;;
7231;SDS011;3657;49.630;11.018;2023-04-22T05:54:20;10.70;;;10.00;;
7231;SDS011;3657;49.630;11.018;2023-04-22T05:56:47;10.30;;;9.83;;
7231;SDS011;3657;49.630;11.018;2023-04-22T05:59:15;9.73;;;9.23;;
7231;SDS011;3657;49.630;11.018;2023-04-22T06:01:41;9.40;;;8.70;;
7231;SDS011;3657;49.630;11.018;2023-04-22T06:04:09;9.57;;;9.27;;
7231;SDS011;3657;49.630;11.018;2023-04-22T06:06:36;9.20;;;8.80;;
7231;SDS011;3657;49.630;11.018;2023-04-22T06:09:03;9.63;;;9.13;;
7231;SDS011;3657;49.630;11.018;2023-04-22T06:11:31;9.37;;;9.07;;
7231;SDS011;3657;49.630;11.018;2023-04-22T06:13:57;9.50;;;8.83;;
7231;SDS011;3657;49.630;11.018;2023-04-22T06:16:25;9.17;;;8.87;;
7231;SDS011;3657;49.630;11.018;2023-04-22T06:18:52;9.80;;;9.20;;
7231;SDS011;3657;49.630;11.018;2023-04-22T06:21:19;9.30;;;8.90;;
7231;SDS011;3657;49.630;11.018;2023-04-22T06:23:46;10.27;;;9.57;;
7231;SDS011;3657;49.630;11.018;2023-04-22T06:26:12;9.60;;;9.10;;
7231;SDS011;3657;49.630;11.018;2023-04-22T06:28:39;9.20;;;8.77;;
7231;SDS011;3657;49.630;11.018;2023-04-22T06:31:06;9.80;;;9.37;;
7231;SDS011;3657;49.630;11.018;2023-04-22T06:33:34;9.60;;;8.87;;
7231;SDS011;3657;49.630;11.018;2023-04-22T06:36:01;10.00;;;9.50;;
7231;SDS011;3657;49.630;11.018;2023-04-22T06:38:28;9.23;;;8.87;;
7231;SDS011;3657;49.630;11.018;2023-04-22T06:40:55;8.33;;;7.93;;
7231;SDS011;3657;49.630;11.018;2023-04-22T06:43:22;9.93;;;9.43;;
7231;SDS011;3657;49.630;11.018;2023-04-22T06:45:48;9.97;;;9.37;;
7231;SDS011;3657;49.630;11.018;2023-04-22T06:48:15;9.67;;;9.17;;
7231;SDS011;3657;49.630;11.018;2023-04-22T06:50:43;9.27;;;8.63;;
7231;SDS011;3657;49.630;11.018;2023-04-22T06:53:09;9.67;;;9.17;;
7231;SDS011;3657;49.630;11.018;2023-04-22T06:55:36;10.13;;;9.43;;
7231;SDS011;3657;49.630;11.018;2023-04-22T06:58:03;9.60;;;9.13;;
7231;SDS011;3657;49.630;11.018;2023-04-22T07:00:30;9.57;;;9.17;;
7231;SDS011;3657;49.630;11.018;2023-04-22T07:02:56;10.07;;;9.47;;
7231;SDS011;3657;49.630;11.018;2023-04-22T07:05:23;8.93;;;8.10;;
7231;SDS011;3657;49.630;11.018;2023-04-22T07:07:51;9.20;;;8.80;;
7231;SDS011;3657;49.630;11.018;2023-04-22T07:10:18;8.50;;;8.20;;
7231;SDS011;3657;49.630;11.018;2023-04-22T07:12:44;9.07;;;8.67;;
7231;SDS011;3657;49.630;11.018;2023-04-22T07:15:11;8.90;;;8.60;;
7231;SDS011;3657;49.630;11.018;2023-04-22T07:17:38;8.80;;;8.50;;
7231;SDS011;3657;49.630;11.018;2023-04-22T07:20:05;8.83;;;8.37;;
7231;SDS011;3657;49.630;11.018;2023-04-22T07:22:32;8.97;;;8.57;;
7231;SDS011;3657;49.630;11.018;2023-04-22T07:25:00;10.43;;;9.60;;
7231;SDS011;3657;49.630;11.018;2023-04-22T07:27:27;9.27;;;8.80;;
7231;SDS011;3657;49.630;11.018;2023-04-22T07:29:53;8.90;;;8.30;;
7231;SDS011;3657;49.630;11.018;2023-04-22T07:32:20;8.43;;;8.13;;
7231;SDS011;3657;49.630;11.018;2023-04-22T07:34:47;8.53;;;8.07;;
7231;SDS011;3657;49.630;11.018;2023-04-22T07:37:13;9.30;;;8.63;;
7231;SDS011;3657;49.630;11.018;2023-04-22T07:39:40;8.43;;;8.20;;
7231;SDS011;3657;49.630;11.018;2023-04-22T07:42:08;9.57;;;9.10;;
7231;SDS011;3657;49.630;11.018;2023-04-22T07:44:34;8.73;;;8.30;;
7231;SDS011;3657;49.630;11.018;2023-04-22T07:47:01;9.00;;;8.63;;
7231;SDS011;3657;49.630;11.018;2023-04-22T07:49:28;9.17;;;8.60;;
7231;SDS011;3657;49.630;11.018;2023-04-22T07:51:55;7.87;;;7.67;;
7231;SDS011;3657;49.630;11.018;2023-04-22T07:54:21;9.90;;;9.40;;
7231;SDS011;3657;49.630;11.018;2023-04-22T07:56:48;9.23;;;8.57;;
7231;SDS011;3657;49.630;11.018;2023-04-22T07:59:16;8.33;;;7.67;;
7231;SDS011;3657;49.630;11.018;2023-04-22T08:01:43;8.73;;;8.27;;
7231;SDS011;3657;49.630;11.018;2023-04-22T08:04:10;7.73;;;7.53;;
7231;SDS011;3657;49.630;11.018;2023-04-22T08:06:39;9.50;;;9.00;;
7231;SDS011;3657;49.630;11.018;2023-04-22T08:09:05;8.17;;;7.77;;
7231;SDS011;3657;49.630;11.018;2023-04-22T08:11:34;9.00;;;8.50;;
7231;SDS011;3657;49.630;11.018;2023-04-22T08:14:01;9.07;;;8.60;;
7231;SDS011;3657;49.630;11.018;2023-04-22T08:16:29;8.67;;;8.30;;
7231;SDS011;3657;49.630;11.018;2023-04-22T08:18:55;8.73;;;8.20;;
7231;SDS011;3657;49.630;11.018;2023-04-22T08:21:22;9.20;;;8.60;;
7231;SDS011;3657;49.630;11.018;2023-04-22T08:23:49;9.27;;;8.97;;
7231;SDS011;3657;49.630;11.018;2023-04-22T08:26:16;7.97;;;7.47;;
7231;SDS011;3657;49.630;11.018;2023-04-22T08:28:42;8.20;;;7.90;;
7231;SDS011;3657;49.630;11.018;2023-04-22T08:31:09;8.27;;;7.97;;
7231;SDS011;3657;49.630;11.018;2023-04-22T08:33:38;8.37;;;7.90;;
7231;SDS011;3657;49.630;11.018;2023-04-22T08:36:05;8.00;;;7.50;;
7231;SDS011;3657;49.630;11.018;2023-04-22T08:38:32;8.20;;;7.77;;
7231;SDS011;3657;49.630;11.018;2023-04-22T08:41:00;7.73;;;7.03;;
7231;SDS011;3657;49.630;11.018;2023-04-22T08:43:28;8.43;;;8.00;;
7231;SDS011;3657;49.630;11.018;2023-04-22T08:45:54;8.23;;;7.93;;
7231;SDS011;3657;49.630;11.018;2023-04-22T08:48:21;7.90;;;7.50;;
7231;SDS011;3657;49.630;11.018;2023-04-22T08:50:49;7.77;;;7.47;;
7231;SDS011;3657;49.630;11.018;2023-04-22T08:53:17;9.17;;;8.77;;
7231;SDS011;3657;49.630;11.018;2023-04-22T08:55:43;8.17;;;7.77;;
7231;SDS011;3657;49.630;11.018;2023-04-22T08:58:10;7.70;;;7.37;;
7231;SDS011;3657;49.630;11.018;2023-04-22T09:00:38;8.03;;;7.43;;
7231;SDS011;3657;49.630;11.018;2023-04-22T09:03:07;9.03;;;8.43;;
7231;SDS011;3657;49.630;11.018;2023-04-22T09:05:35;8.07;;;7.67;;
7231;SDS011;3657;49.630;11.018;2023-04-22T09:08:04;7.97;;;7.57;;
7231;SDS011;3657;49.630;11.018;2023-04-22T09:10:32;7.90;;;7.50;;
7231;SDS011;3657;49.630;11.018;2023-04-22T09:13:01;7.30;;;7.10;;
7231;SDS011;3657;49.630;11.018;2023-04-22T09:15:29;8.23;;;7.70;;
7231;SDS011;3657;49.630;11.018;2023-04-22T09:17:56;7.97;;;7.67;;
7231;SDS011;3657;49.630;11.018;2023-04-22T09:20:24;8.00;;;7.60;;
7231;SDS011;3657;49.630;11.018;2023-04-22T09:22:51;8.40;;;8.00;;
7231;SDS011;3657;49.630;11.018;2023-04-22T09:25:20;7.30;;;7.03;;
7231;SDS011;3657;49.630;11.018;2023-04-22T09:27:48;7.33;;;7.07;;
7231;SDS011;3657;49.630;11.018;2023-04-22T09:30:16;6.87;;;6.63;;
7231;SDS011;3657;49.630;11.018;2023-04-22T09:32:50;6.47;;;6.10;;
7231;SDS011;3657;49.630;11.018;2023-04-22T09:35:21;6.73;;;6.33;;
7231;SDS011;3657;49.630;11.018;2023-04-22T09:37:50;8.00;;;7.60;;
7231;SDS011;3657;49.630;11.018;2023-04-22T09:40:22;6.70;;;6.50;;
7231;SDS011;3657;49.630;11.018;2023-04-22T09:42:49;7.13;;;6.83;;
7231;SDS011;3657;49.630;11.018;2023-04-22T09:45:23;7.90;;;7.50;;
7231;SDS011;3657;49.630;11.018;2023-04-22T09:47:52;7.90;;;7.60;;
7231;SDS011;3657;49.630;11.018;2023-04-22T09:50:20;6.90;;;6.70;;
7231;SDS011;3657;49.630;11.018;2023-04-22T09:52:52;6.77;;;6.37;;
7231;SDS011;3657;49.630;11.018;2023-04-22T09:55:22;6.43;;;6.23;;
7231;SDS011;3657;49.630;11.018;2023-04-22T09:57:50;6.60;;;6.40;;
7231;SDS011;3657;49.630;11.018;2023-04-22T10:00:17;6.90;;;6.50;;
7231;SDS011;3657;49.630;11.018;2023-04-22T10:02:45;6.97;;;6.57;;
7231;SDS011;3657;49.630;11.018;2023-04-22T10:05:11;6.43;;;6.23;;
7231;SDS011;3657;49.630;11.018;2023-04-22T10:07:39;7.47;;;7.17;;
7231;SDS011;3657;49.630;11.018;2023-04-22T10:10:07;7.17;;;6.87;;
7231;SDS011;3657;49.630;11.018;2023-04-22T10:12:36;6.23;;;6.03;;
7231;SDS011;3657;49.630;11.018;2023-04-22T10:15:03;5.73;;;5.53;;
7231;SDS011;3657;49.630;11.018;2023-04-22T10:17:30;6.40;;;6.20;;
7231;SDS011;3657;49.630;11.018;2023-04-22T10:19:58;6.10;;;5.80;;
7231;SDS011;3657;49.630;11.018;2023-04-22T10:22:28;6.03;;;5.83;;
7231;SDS011;3657;49.630;11.018;2023-04-22T10:24:57;6.50;;;6.30;;
7231;SDS011;3657;49.630;11.018;2023-04-22T10:27:24;7.03;;;6.73;;
7231;SDS011;3657;49.630;11.018;2023-04-22T10:29:54;6.40;;;6.20;;
7231;SDS011;3657;49.630;11.018;2023-04-22T10:32:24;6.67;;;6.37;;
7231;SDS011;3657;49.630;11.018;2023-04-22T10:35:09;6.40;;;6.20;;
7231;SDS011;3657;49.630;11.018;2023-04-22T10:37:39;6.30;;;6.10;;
7231;SDS011;3657;49.630;11.018;2023-04-22T10:40:08;5.80;;;5.60;;
7231;SDS011;3657;49.630;11.018;2023-04-22T10:42:40;6.03;;;5.73;;
7231;SDS011;3657;49.630;11.018;2023-04-22T10:45:13;6.17;;;5.97;;
7231;SDS011;3657;49.630;11.018;2023-04-22T10:47:43;6.17;;;5.87;;
7231;SDS011;3657;49.630;11.018;2023-04-22T10:50:15;6.33;;;6.13;;
7231;SDS011;3657;49.630;11.018;2023-04-22T10:52:45;6.53;;;6.33;;
7231;SDS011;3657;49.630;11.018;2023-04-22T10:55:13;7.53;;;7.30;;
7231;SDS011;3657;49.630;11.018;2023-04-22T10:57:41;10.33;;;9.97;;
7231;SDS011;3657;49.630;11.018;2023-04-22T11:00:23;7.40;;;7.20;;
7231;SDS011;3657;49.630;11.018;2023-04-22T11:03:05;10.63;;;10.33;;
7231;SDS011;3657;49.630;11.018;2023-04-22T11:05:34;6.83;;;6.63;;
7231;SDS011;3657;49.630;11.018;2023-04-22T11:08:02;8.10;;;7.80;;
7231;SDS011;3657;49.630;11.018;2023-04-22T11:10:32;6.10;;;5.90;;
7231;SDS011;3657;49.630;11.018;2023-04-22T11:13:01;6.00;;;5.77;;
7231;SDS011;3657;49.630;11.018;2023-04-22T11:15:33;6.67;;;6.30;;
7231;SDS011;3657;49.630;11.018;2023-04-22T11:18:01;6.27;;;6.03;;
7231;SDS011;3657;49.630;11.018;2023-04-22T11:20:28;6.23;;;5.93;;
7231;SDS011;3657;49.630;11.018;2023-04-22T11:22:55;6.40;;;6.20;;
7231;SDS011;3657;49.630;11.018;2023-04-22T11:25:23;5.90;;;5.70;;
7231;SDS011;3657;49.630;11.018;2023-04-22T11:27:51;5.63;;;5.27;;
7231;SDS011;3657;49.630;11.018;2023-04-22T11:30:19;5.53;;;5.43;;
7231;SDS011;3657;49.630;11.018;2023-04-22T11:32:49;5.07;;;4.97;;
7231;SDS011;3657;49.630;11.018;2023-04-22T11:35:17;6.00;;;5.80;;
7231;SDS011;3657;49.630;11.018;2023-04-22T11:37:45;5.40;;;5.30;;
7231;SDS011;3657;49.630;11.018;2023-04-22T11:40:15;5.03;;;4.83;;
7231;SDS011;3657;49.630;11.018;2023-04-22T11:42:43;5.97;;;5.67;;
7231;SDS011;3657;49.630;11.018;2023-04-22T11:45:10;4.90;;;4.80;;
7231;SDS011;3657;49.630;11.018;2023-04-22T11:47:37;7.07;;;6.87;;
7231;SDS011;3657;49.630;11.018;2023-04-22T11:50:07;8.90;;;8.50;;
7231;SDS011;3657;49.630;11.018;2023-04-22T11:52:42;7.00;;;6.70;;
7231;SDS011;3657;49.630;11.018;2023-04-22T11:55:11;7.27;;;7.00;;
7231;SDS011;3657;49.630;11.018;2023-04-22T11:57:38;5.90;;;5.70;;
7231;SDS011;3657;49.630;11.018;2023-04-22T12:00:05;5.10;;;5.00;;
7231;SDS011;3657;49.630;11.018;2023-04-22T12:02:35;6.00;;;5.70;;
7231;SDS011;3657;49.630;11.018;2023-04-22T12:05:02;5.67;;;5.47;;
7231;SDS011;3657;49.630;11.018;2023-04-22T12:07:30;5.60;;;5.40;;
7231;SDS011;3657;49.630;11.018;2023-04-22T12:09:58;5.27;;;5.17;;
7231;SDS011;3657;49.630;11.018;2023-04-22T12:12:25;5.10;;;5.00;;
7231;SDS011;3657;49.630;11.018;2023-04-22T12:14:52;4.67;;;4.57;;
7231;SDS011;3657;49.630;11.018;2023-04-22T12:17:22;4.80;;;4.70;;
7231;SDS011;3657;49.630;11.018;2023-04-22T12:19:52;4.33;;;4.23;;
7231;SDS011;3657;49.630;11.018;2023-04-22T12:22:22;4.50;;;4.40;;
7231;SDS011;3657;49.630;11.018;2023-04-22T12:24:52;3.97;;;3.87;;
7231;SDS011;3657;49.630;11.018;2023-04-22T12:27:18;3.97;;;3.77;;
7231;SDS011;3657;49.630;11.018;2023-04-22T12:29:52;3.83;;;3.73;;
7231;SDS011;3657;49.630;11.018;2023-04-22T12:32:21;4.00;;;3.90;;
7231;SDS011;3657;49.630;11.018;2023-04-22T12:34:50;4.00;;;3.80;;
7231;SDS011;3657;49.630;11.018;2023-04-22T12:37:17;4.07;;;3.97;;
7231;SDS011;3657;49.630;11.018;2023-04-22T12:39:44;3.90;;;3.70;;
7231;SDS011;3657;49.630;11.018;2023-04-22T12:42:12;3.73;;;3.63;;
7231;SDS011;3657;49.630;11.018;2023-04-22T12:44:38;4.43;;;4.23;;
7231;SDS011;3657;49.630;11.018;2023-04-22T12:47:05;3.73;;;3.63;;
7231;SDS011;3657;49.630;11.018;2023-04-22T12:49:33;7.03;;;6.73;;
7231;SDS011;3657;49.630;11.018;2023-04-22T12:52:02;12.90;;;12.17;;
7231;SDS011;3657;49.630;11.018;2023-04-22T12:54:28;8.80;;;8.27;;
7231;SDS011;3657;49.630;11.018;2023-04-22T12:56:55;6.30;;;5.90;;
7231;SDS011;3657;49.630;11.018;2023-04-22T12:59:24;6.07;;;5.77;;
7231;SDS011;3657;49.630;11.018;2023-04-22T13:01:50;5.07;;;4.97;;
7231;SDS011;3657;49.630;11.018;2023-04-22T13:04:18;4.90;;;4.80;;
7231;SDS011;3657;49.630;11.018;2023-04-22T13:06:45;19.23;;;18.33;;
7231;SDS011;3657;49.630;11.018;2023-04-22T13:09:14;5.90;;;5.60;;
7231;SDS011;3657;49.630;11.018;2023-04-22T13:11:41;5.80;;;5.60;;
7231;SDS011;3657;49.630;11.018;2023-04-22T13:14:08;7.20;;;6.90;;
7231;SDS011;3657;49.630;11.018;2023-04-22T13:16:36;7.03;;;6.83;;
7231;SDS011;3657;49.630;11.018;2023-04-22T13:19:02;6.47;;;6.20;;
7231;SDS011;3657;49.630;11.018;2023-04-22T13:21:29;6.47;;;6.27;;
7231;SDS011;3657;49.630;11.018;2023-04-22T13:23:56;5.90;;;5.70;;
7231;SDS011;3657;49.630;11.018;2023-04-22T13:26:22;5.00;;;4.90;;
7231;SDS011;3657;49.630;11.018;2023-04-22T13:28:49;5.43;;;5.33;;
7231;SDS011;3657;49.630;11.018;2023-04-22T13:31:16;4.83;;;4.73;;
7231;SDS011;3657;49.630;11.018;2023-04-22T13:33:43;4.97;;;4.77;;
7231;SDS011;3657;49.630;11.018;2023-04-22T13:36:11;5.77;;;5.47;;
7231;SDS011;3657;49.630;11.018;2023-04-22T13:38:37;5.10;;;5.00;;
7231;SDS011;3657;49.630;11.018;2023-04-22T13:41:04;4.73;;;4.63;;
7231;SDS011;3657;49.630;11.018;2023-04-22T13:43:31;5.00;;;4.70;;
7231;SDS011;3657;49.630;11.018;2023-04-22T13:45:57;4.97;;;4.87;;
7231;SDS011;3657;49.630;11.018;2023-04-22T13:48:24;17.33;;;16.17;;
7231;SDS011;3657;49.630;11.018;2023-04-22T13:50:52;7.63;;;7.20;;
7231;SDS011;3657;49.630;11.018;2023-04-22T13:53:19;13.00;;;12.13;;
7231;SDS011;3657;49.630;11.018;2023-04-22T13:55:46;12.93;;;12.33;;
7231;SDS011;3657;49.630;11.018;2023-04-22T13:58:12;14.67;;;13.63;;
7231;SDS011;3657;49.630;11.018;2023-04-22T14:00:39;10.60;;;10.13;;
7231;SDS011;3657;49.630;11.018;2023-04-22T14:03:05;7.33;;;7.13;;
7231;SDS011;3657;49.630;11.018;2023-04-22T14:05:32;6.80;;;6.47;;
7231;SDS011;3657;49.630;11.018;2023-04-22T14:08:00;6.97;;;6.77;;
7231;SDS011;3657;49.630;11.018;2023-04-22T14:10:27;5.80;;;5.50;;
7231;SDS011;3657;49.630;11.018;2023-04-22T14:12:56;5.50;;;5.30;;
7231;SDS011;3657;49.630;11.018;2023-04-22T14:15:23;6.33;;;6.13;;
7231;SDS011;3657;49.630;11.018;2023-04-22T14:17:49;5.03;;;4.93;;
7231;SDS011;3657;49.630;11.018;2023-04-22T14:20:16;5.10;;;5.00;;
7231;SDS011;3657;49.630;11.018;2023-04-22T14:22:42;5.60;;;5.40;;
7231;SDS011;3657;49.630;11.018;2023-04-22T14:25:11;5.77;;;5.57;;
7231;SDS011;3657;49.630;11.018;2023-04-22T14:27:38;5.03;;;4.83;;
7231;SDS011;3657;49.630;11.018;2023-04-22T14:30:05;5.13;;;4.97;;
7231;SDS011;3657;49.630;11.018;2023-04-22T14:32:32;4.17;;;4.07;;
7231;SDS011;3657;49.630;11.018;2023-04-22T14:34:59;4.83;;;4.73;;
7231;SDS011;3657;49.630;11.018;2023-04-22T14:37:26;5.17;;;5.07;;
7231;SDS011;3657;49.630;11.018;2023-04-22T14:39:52;5.40;;;5.20;;
7231;SDS011;3657;49.630;11.018;2023-04-22T14:42:21;4.60;;;4.50;;
7231;SDS011;3657;49.630;11.018;2023-04-22T14:44:47;5.23;;;5.03;;
7231;SDS011;3657;49.630;11.018;2023-04-22T14:47:14;4.73;;;4.63;;
7231;SDS011;3657;49.630;11.018;2023-04-22T14:49:41;4.70;;;4.60;;
7231;SDS011;3657;49.630;11.018;2023-04-22T14:52:07;5.20;;;5.00;;
7231;SDS011;3657;49.630;11.018;2023-04-22T14:54:34;4.93;;;4.83;;
7231;SDS011;3657;49.630;11.018;2023-04-22T14:57:01;5.18;;;4.97;;
7231;SDS011;3657;49.630;11.018;2023-04-22T14:59:29;4.80;;;4.60;;